Terminal Aerodrome Forecast
Issued by NWS

Home | Current Version | Previous Version | Text Only | Print | Product List | Glossary Off
Versions: 1 2 3 4 5 6 7 8 9 10 11 12 13 14 15 16 17 18 19 20 21 22 23 24 25 26 27 28 29 30 31

000
FTUS45 KGGW 301700
TAFOLF
TAF
KOLF 301736Z 3018/0118 VRB05KT P6SM -SHRA OVC010
     FM010500 29015KT P6SM -SHRA OVC015
     FM011300 28017KT P6SM OVC030=

USA.gov is the U.S. government's official web portal to all federal, state and local government web resources and services.